sensor_id;sensor_type;location;lat;lon;timestamp;noise_LAeq;noise_LA_min;noise_LA_max;noise_LA01;noise_LA95
67900;Laerm;54700;51.796;10.956;2024-01-11T00:00:11;30.67;28.29;37.54;;
67900;Laerm;54700;51.796;10.956;2024-01-11T00:02:37;29.95;28.13;37.28;;
67900;Laerm;54700;51.796;10.956;2024-01-11T00:05:05;30.94;28.15;40.06;;
67900;Laerm;54700;51.796;10.956;2024-01-11T00:07:33;30.98;28.26;38.21;;
67900;Laerm;54700;51.796;10.956;2024-01-11T00:10:01;30.07;27.89;36.82;;
67900;Laerm;54700;51.796;10.956;2024-01-11T00:12:28;30.20;28.03;47.54;;
67900;Laerm;54700;51.796;10.956;2024-01-11T00:14:57;29.68;27.98;40.41;;
67900;Laerm;54700;51.796;10.956;2024-01-11T00:17:25;29.97;28.11;37.83;;
67900;Laerm;54700;51.796;10.956;2024-01-11T00:19:53;31.41;28.34;39.50;;
67900;Laerm;54700;51.796;10.956;2024-01-11T00:22:23;53.55;28.20;70.89;;
67900;Laerm;54700;51.796;10.956;2024-01-11T00:24:50;30.25;28.13;40.48;;
67900;Laerm;54700;51.796;10.956;2024-01-11T00:27:17;33.98;29.07;44.08;;
67900;Laerm;54700;51.796;10.956;2024-01-11T00:29:43;31.31;28.27;42.44;;
67900;Laerm;54700;51.796;10.956;2024-01-11T00:32:12;52.03;27.84;67.57;;
67900;Laerm;54700;51.796;10.956;2024-01-11T00:34:39;51.34;28.80;69.56;;
67900;Laerm;54700;51.796;10.956;2024-01-11T00:37:06;31.65;28.69;39.68;;
67900;Laerm;54700;51.796;10.956;2024-01-11T00:39:33;30.15;27.90;37.88;;
67900;Laerm;54700;51.796;10.956;2024-01-11T00:42:00;30.95;28.01;40.85;;
67900;Laerm;54700;51.796;10.956;2024-01-11T00:44:27;30.49;28.46;35.78;;
67900;Laerm;54700;51.796;10.956;2024-01-11T00:46:54;31.05;28.44;37.68;;
67900;Laerm;54700;51.796;10.956;2024-01-11T00:49:22;30.66;28.37;35.94;;
67900;Laerm;54700;51.796;10.956;2024-01-11T00:51:49;30.09;28.06;35.84;;
67900;Laerm;54700;51.796;10.956;2024-01-11T00:54:16;29.70;28.01;34.88;;
67900;Laerm;54700;51.796;10.956;2024-01-11T00:56:43;30.08;28.17;36.59;;
67900;Laerm;54700;51.796;10.956;2024-01-11T00:59:10;50.25;28.07;65.84;;
67900;Laerm;54700;51.796;10.956;2024-01-11T01:01:36;30.81;28.30;37.96;;
67900;Laerm;54700;51.796;10.956;2024-01-11T01:04:03;32.16;28.83;41.04;;
67900;Laerm;54700;51.796;10.956;2024-01-11T01:06:32;31.72;29.17;39.90;;
67900;Laerm;54700;51.796;10.956;2024-01-11T01:08:58;31.32;28.50;37.92;;
67900;Laerm;54700;51.796;10.956;2024-01-11T01:11:25;31.72;28.88;37.51;;
67900;Laerm;54700;51.796;10.956;2024-01-11T01:13:52;48.66;28.82;63.47;;
67900;Laerm;54700;51.796;10.956;2024-01-11T01:16:19;32.80;28.88;50.54;;
67900;Laerm;54700;51.796;10.956;2024-01-11T01:18:46;35.36;30.14;45.15;;
67900;Laerm;54700;51.796;10.956;2024-01-11T01:21:13;31.63;29.12;35.55;;
67900;Laerm;54700;51.796;10.956;2024-01-11T01:23:41;30.95;28.28;38.96;;
67900;Laerm;54700;51.796;10.956;2024-01-11T01:26:08;32.90;30.12;38.16;;
67900;Laerm;54700;51.796;10.956;2024-01-11T01:28:35;39.74;30.71;43.82;;
67900;Laerm;54700;51.796;10.956;2024-01-11T01:31:02;49.59;28.15;65.96;;
67900;Laerm;54700;51.796;10.956;2024-01-11T01:33:31;31.30;28.08;39.67;;
67900;Laerm;54700;51.796;10.956;2024-01-11T01:35:58;52.02;28.57;68.23;;
67900;Laerm;54700;51.796;10.956;2024-01-11T01:38:25;31.81;28.49;40.27;;
67900;Laerm;54700;51.796;10.956;2024-01-11T01:40:53;50.99;28.91;67.65;;
67900;Laerm;54700;51.796;10.956;2024-01-11T01:43:20;33.24;29.29;39.56;;
67900;Laerm;54700;51.796;10.956;2024-01-11T01:45:47;55.59;28.74;72.08;;
67900;Laerm;54700;51.796;10.956;2024-01-11T01:48:14;29.85;28.27;36.15;;
67900;Laerm;54700;51.796;10.956;2024-01-11T01:50:41;30.04;28.06;38.63;;
67900;Laerm;54700;51.796;10.956;2024-01-11T01:53:11;30.53;28.35;36.37;;
67900;Laerm;54700;51.796;10.956;2024-01-11T01:55:39;31.00;28.63;37.07;;
67900;Laerm;54700;51.796;10.956;2024-01-11T01:58:07;35.63;28.94;44.69;;
67900;Laerm;54700;51.796;10.956;2024-01-11T02:00:35;33.02;28.93;43.98;;
67900;Laerm;54700;51.796;10.956;2024-01-11T02:03:03;31.34;28.41;38.54;;
67900;Laerm;54700;51.796;10.956;2024-01-11T02:05:31;30.12;28.18;38.78;;
67900;Laerm;54700;51.796;10.956;2024-01-11T02:10:28;31.75;28.49;38.91;;
67900;Laerm;54700;51.796;10.956;2024-01-11T02:12:58;32.11;28.72;39.73;;
67900;Laerm;54700;51.796;10.956;2024-01-11T02:15:30;31.36;28.88;39.45;;
67900;Laerm;54700;51.796;10.956;2024-01-11T02:17:57;30.57;28.24;38.79;;
67900;Laerm;54700;51.796;10.956;2024-01-11T02:20:25;30.95;28.67;38.51;;
67900;Laerm;54700;51.796;10.956;2024-01-11T02:22:56;30.77;28.37;41.36;;
67900;Laerm;54700;51.796;10.956;2024-01-11T02:25:26;54.77;28.40;71.89;;
67900;Laerm;54700;51.796;10.956;2024-01-11T02:27:53;31.99;28.24;43.90;;
67900;Laerm;54700;51.796;10.956;2024-01-11T02:30:20;33.75;28.03;61.91;;
67900;Laerm;54700;51.796;10.956;2024-01-11T02:32:49;30.62;28.31;41.26;;
67900;Laerm;54700;51.796;10.956;2024-01-11T02:35:16;51.13;28.23;67.02;;
67900;Laerm;54700;51.796;10.956;2024-01-11T02:37:45;39.27;30.28;49.29;;
67900;Laerm;54700;51.796;10.956;2024-01-11T02:40:13;30.95;28.80;38.88;;
67900;Laerm;54700;51.796;10.956;2024-01-11T02:42:42;52.13;29.70;67.70;;
67900;Laerm;54700;51.796;10.956;2024-01-11T02:45:10;37.55;30.11;46.96;;
67900;Laerm;54700;51.796;10.956;2024-01-11T02:47:37;32.86;29.30;41.16;;
67900;Laerm;54700;51.796;10.956;2024-01-11T02:50:04;37.90;28.92;64.86;;
67900;Laerm;54700;51.796;10.956;2024-01-11T02:52:32;32.76;28.95;46.25;;
67900;Laerm;54700;51.796;10.956;2024-01-11T02:54:59;57.10;29.39;71.83;;
67900;Laerm;54700;51.796;10.956;2024-01-11T02:57:26;31.94;29.17;37.05;;
67900;Laerm;54700;51.796;10.956;2024-01-11T02:59:54;36.84;30.58;44.22;;
67900;Laerm;54700;51.796;10.956;2024-01-11T03:02:21;55.51;30.69;68.81;;
67900;Laerm;54700;51.796;10.956;2024-01-11T03:04:48;40.84;30.65;55.27;;
67900;Laerm;54700;51.796;10.956;2024-01-11T03:07:15;32.52;29.03;41.01;;
67900;Laerm;54700;51.796;10.956;2024-01-11T03:09:42;35.03;29.68;58.51;;
67900;Laerm;54700;51.796;10.956;2024-01-11T03:12:09;51.38;30.80;67.01;;
67900;Laerm;54700;51.796;10.956;2024-01-11T03:14:36;35.55;31.06;47.59;;
67900;Laerm;54700;51.796;10.956;2024-01-11T03:17:05;33.02;30.04;38.46;;
67900;Laerm;54700;51.796;10.956;2024-01-11T03:19:32;52.02;29.91;71.48;;
67900;Laerm;54700;51.796;10.956;2024-01-11T03:21:59;55.73;30.70;74.05;;
67900;Laerm;54700;51.796;10.956;2024-01-11T03:24:28;32.48;29.25;40.17;;
67900;Laerm;54700;51.796;10.956;2024-01-11T03:26:55;48.24;30.13;63.17;;
67900;Laerm;54700;51.796;10.956;2024-01-11T03:29:22;53.15;32.66;69.94;;
67900;Laerm;54700;51.796;10.956;2024-01-11T03:31:49;57.55;31.28;72.67;;
67900;Laerm;54700;51.796;10.956;2024-01-11T03:34:17;55.51;31.80;69.41;;
67900;Laerm;54700;51.796;10.956;2024-01-11T03:36:44;53.35;31.43;70.07;;
67900;Laerm;54700;51.796;10.956;2024-01-11T03:39:11;59.55;31.82;73.25;;
67900;Laerm;54700;51.796;10.956;2024-01-11T03:41:43;35.53;31.81;46.93;;
67900;Laerm;54700;51.796;10.956;2024-01-11T03:44:11;36.93;31.03;50.59;;
67900;Laerm;54700;51.796;10.956;2024-01-11T03:46:42;59.20;31.79;71.72;;
67900;Laerm;54700;51.796;10.956;2024-01-11T03:49:14;53.33;33.83;71.03;;
67900;Laerm;54700;51.796;10.956;2024-01-11T03:51:42;51.09;30.42;67.47;;
67900;Laerm;54700;51.796;10.956;2024-01-11T03:54:10;48.94;30.95;64.20;;
67900;Laerm;54700;51.796;10.956;2024-01-11T03:56:37;54.64;31.95;71.07;;
67900;Laerm;54700;51.796;10.956;2024-01-11T03:59:05;56.69;33.14;70.92;;
67900;Laerm;54700;51.796;10.956;2024-01-11T04:01:32;51.32;33.19;70.51;;
67900;Laerm;54700;51.796;10.956;2024-01-11T04:04:02;56.21;33.13;70.96;;
67900;Laerm;54700;51.796;10.956;2024-01-11T04:06:29;61.40;34.91;76.84;;
67900;Laerm;54700;51.796;10.956;2024-01-11T04:08:57;42.93;33.94;56.16;;
67900;Laerm;54700;51.796;10.956;2024-01-11T04:11:27;53.98;32.64;70.19;;
67900;Laerm;54700;51.796;10.956;2024-01-11T04:13:54;54.11;31.98;69.86;;
67900;Laerm;54700;51.796;10.956;2024-01-11T04:16:21;61.14;33.96;73.35;;
67900;Laerm;54700;51.796;10.956;2024-01-11T04:18:48;59.01;34.91;70.39;;
67900;Laerm;54700;51.796;10.956;2024-01-11T04:21:24;55.58;35.05;69.56;;
67900;Laerm;54700;51.796;10.956;2024-01-11T04:23:54;58.63;35.28;70.81;;
67900;Laerm;54700;51.796;10.956;2024-01-11T04:26:23;57.82;35.79;70.97;;
67900;Laerm;54700;51.796;10.956;2024-01-11T04:28:50;58.71;35.34;72.38;;
67900;Laerm;54700;51.796;10.956;2024-01-11T04:31:18;58.96;36.73;72.05;;
67900;Laerm;54700;51.796;10.956;2024-01-11T04:33:46;60.49;38.38;72.90;;
67900;Laerm;54700;51.796;10.956;2024-01-11T04:36:12;59.35;37.39;73.35;;
67900;Laerm;54700;51.796;10.956;2024-01-11T04:38:39;61.27;34.80;71.82;;
67900;Laerm;54700;51.796;10.956;2024-01-11T04:41:08;56.15;34.01;70.09;;
67900;Laerm;54700;51.796;10.956;2024-01-11T04:43:38;59.08;35.02;72.75;;
67900;Laerm;54700;51.796;10.956;2024-01-11T04:46:13;58.02;35.52;68.65;;
67900;Laerm;54700;51.796;10.956;2024-01-11T04:48:42;60.58;35.13;71.68;;
67900;Laerm;54700;51.796;10.956;2024-01-11T04:51:13;62.69;36.67;73.37;;
67900;Laerm;54700;51.796;10.956;2024-01-11T04:53:42;60.62;36.59;74.46;;
67900;Laerm;54700;51.796;10.956;2024-01-11T04:56:11;58.70;34.25;73.19;;
67900;Laerm;54700;51.796;10.956;2024-01-11T04:58:42;62.27;35.54;73.37;;
67900;Laerm;54700;51.796;10.956;2024-01-11T05:01:11;60.99;38.20;81.96;;
67900;Laerm;54700;51.796;10.956;2024-01-11T05:03:41;58.19;37.21;71.16;;
67900;Laerm;54700;51.796;10.956;2024-01-11T05:06:15;62.65;36.76;73.13;;
67900;Laerm;54700;51.796;10.956;2024-01-11T05:08:44;61.84;37.68;73.07;;
67900;Laerm;54700;51.796;10.956;2024-01-11T05:11:17;60.20;39.04;70.90;;
67900;Laerm;54700;51.796;10.956;2024-01-11T05:13:48;60.12;36.26;71.42;;
67900;Laerm;54700;51.796;10.956;2024-01-11T05:16:20;59.87;36.05;70.21;;
67900;Laerm;54700;51.796;10.956;2024-01-11T05:18:48;59.48;38.61;69.99;;
67900;Laerm;54700;51.796;10.956;2024-01-11T05:21:19;61.53;38.80;70.78;;
67900;Laerm;54700;51.796;10.956;2024-01-11T05:23:49;60.30;36.35;75.12;;
67900;Laerm;54700;51.796;10.956;2024-01-11T05:26:19;63.55;40.33;73.65;;
67900;Laerm;54700;51.796;10.956;2024-01-11T05:28:47;63.46;41.15;73.48;;
67900;Laerm;54700;51.796;10.956;2024-01-11T05:31:15;63.13;40.50;72.49;;
67900;Laerm;54700;51.796;10.956;2024-01-11T05:33:43;61.40;41.89;71.78;;
67900;Laerm;54700;51.796;10.956;2024-01-11T05:36:10;60.82;37.20;70.32;;
67900;Laerm;54700;51.796;10.956;2024-01-11T05:38:38;63.38;41.66;71.91;;
67900;Laerm;54700;51.796;10.956;2024-01-11T05:41:06;62.51;44.37;71.72;;
67900;Laerm;54700;51.796;10.956;2024-01-11T05:43:33;62.22;44.71;71.76;;
67900;Laerm;54700;51.796;10.956;2024-01-11T05:46:03;63.48;43.90;75.33;;
67900;Laerm;54700;51.796;10.956;2024-01-11T05:48:30;63.88;51.65;72.04;;
67900;Laerm;54700;51.796;10.956;2024-01-11T05:50:57;62.35;40.92;75.38;;
67900;Laerm;54700;51.796;10.956;2024-01-11T05:53:28;65.19;48.86;76.68;;
67900;Laerm;54700;51.796;10.956;2024-01-11T05:56:09;63.01;47.72;74.29;;
67900;Laerm;54700;51.796;10.956;2024-01-11T05:58:39;64.25;47.40;74.18;;
67900;Laerm;54700;51.796;10.956;2024-01-11T06:01:11;63.95;53.31;73.21;;
67900;Laerm;54700;51.796;10.956;2024-01-11T06:03:38;63.86;52.20;82.35;;
67900;Laerm;54700;51.796;10.956;2024-01-11T06:06:06;63.59;49.12;75.70;;
67900;Laerm;54700;51.796;10.956;2024-01-11T06:08:35;65.07;45.83;74.95;;
67900;Laerm;54700;51.796;10.956;2024-01-11T06:11:03;63.16;45.54;75.30;;
67900;Laerm;54700;51.796;10.956;2024-01-11T06:13:31;64.43;41.72;74.75;;
67900;Laerm;54700;51.796;10.956;2024-01-11T06:15:58;63.27;48.27;71.86;;
67900;Laerm;54700;51.796;10.956;2024-01-11T06:18:27;64.08;49.22;70.48;;
67900;Laerm;54700;51.796;10.956;2024-01-11T06:20:53;60.71;39.87;70.14;;
67900;Laerm;54700;51.796;10.956;2024-01-11T06:23:25;65.32;43.12;76.85;;
67900;Laerm;54700;51.796;10.956;2024-01-11T06:25:55;63.91;47.11;70.97;;
67900;Laerm;54700;51.796;10.956;2024-01-11T06:28:23;64.18;46.36;72.40;;
67900;Laerm;54700;51.796;10.956;2024-01-11T06:30:50;64.70;45.33;73.55;;
67900;Laerm;54700;51.796;10.956;2024-01-11T06:33:19;64.69;44.75;72.10;;
67900;Laerm;54700;51.796;10.956;2024-01-11T06:35:48;64.53;43.31;76.99;;
67900;Laerm;54700;51.796;10.956;2024-01-11T06:38:16;64.21;43.01;74.22;;
67900;Laerm;54700;51.796;10.956;2024-01-11T06:40:43;64.68;42.13;72.97;;
67900;Laerm;54700;51.796;10.956;2024-01-11T06:43:10;64.35;50.63;75.10;;
67900;Laerm;54700;51.796;10.956;2024-01-11T06:45:37;64.39;48.60;75.42;;
67900;Laerm;54700;51.796;10.956;2024-01-11T06:48:06;62.79;47.29;70.95;;
67900;Laerm;54700;51.796;10.956;2024-01-11T06:50:42;64.36;52.77;71.04;;
67900;Laerm;54700;51.796;10.956;2024-01-11T06:53:20;63.48;44.41;75.38;;
67900;Laerm;54700;51.796;10.956;2024-01-11T06:55:48;65.05;48.11;76.01;;
67900;Laerm;54700;51.796;10.956;2024-01-11T06:58:20;65.38;48.72;73.46;;
67900;Laerm;54700;51.796;10.956;2024-01-11T07:00:47;65.86;50.39;72.89;;
67900;Laerm;54700;51.796;10.956;2024-01-11T07:03:15;65.38;52.79;77.63;;
67900;Laerm;54700;51.796;10.956;2024-01-11T07:05:42;66.24;44.17;81.11;;
67900;Laerm;54700;51.796;10.956;2024-01-11T07:08:15;64.85;46.45;72.78;;
67900;Laerm;54700;51.796;10.956;2024-01-11T07:10:43;62.65;46.69;71.03;;
67900;Laerm;54700;51.796;10.956;2024-01-11T07:13:13;63.54;40.44;73.76;;
67900;Laerm;54700;51.796;10.956;2024-01-11T07:15:42;61.00;38.89;71.66;;
67900;Laerm;54700;51.796;10.956;2024-01-11T07:18:09;58.82;39.37;69.37;;
67900;Laerm;54700;51.796;10.956;2024-01-11T07:20:36;75.45;42.95;87.88;;
67900;Laerm;54700;51.796;10.956;2024-01-11T07:23:06;83.94;59.21;92.31;;
67900;Laerm;54700;51.796;10.956;2024-01-11T07:25:33;89.05;67.75;96.84;;
67900;Laerm;54700;51.796;10.956;2024-01-11T07:28:02;74.99;44.81;89.76;;
67900;Laerm;54700;51.796;10.956;2024-01-11T07:30:30;63.61;41.79;74.41;;
67900;Laerm;54700;51.796;10.956;2024-01-11T07:32:58;62.14;39.63;75.13;;
67900;Laerm;54700;51.796;10.956;2024-01-11T07:35:27;62.79;42.05;72.00;;
67900;Laerm;54700;51.796;10.956;2024-01-11T07:37:55;61.76;42.87;71.02;;
67900;Laerm;54700;51.796;10.956;2024-01-11T07:40:22;61.43;44.57;71.70;;
67900;Laerm;54700;51.796;10.956;2024-01-11T07:42:50;61.56;40.42;72.61;;
67900;Laerm;54700;51.796;10.956;2024-01-11T07:45:20;64.79;38.47;73.71;;
67900;Laerm;54700;51.796;10.956;2024-01-11T07:47:47;63.06;42.85;70.27;;
67900;Laerm;54700;51.796;10.956;2024-01-11T07:50:14;64.04;42.37;71.27;;
67900;Laerm;54700;51.796;10.956;2024-01-11T07:52:42;63.74;50.36;71.85;;
67900;Laerm;54700;51.796;10.956;2024-01-11T07:55:12;63.63;40.01;71.71;;
67900;Laerm;54700;51.796;10.956;2024-01-11T07:57:43;63.95;47.18;71.62;;
67900;Laerm;54700;51.796;10.956;2024-01-11T08:00:10;65.49;49.22;77.48;;
67900;Laerm;54700;51.796;10.956;2024-01-11T08:02:40;63.75;39.85;72.93;;
67900;Laerm;54700;51.796;10.956;2024-01-11T08:05:08;62.96;39.29;73.07;;
67900;Laerm;54700;51.796;10.956;2024-01-11T08:07:36;62.55;42.19;72.80;;
67900;Laerm;54700;51.796;10.956;2024-01-11T08:10:04;61.15;43.44;70.99;;
67900;Laerm;54700;51.796;10.956;2024-01-11T08:12:34;63.93;46.04;72.29;;
67900;Laerm;54700;51.796;10.956;2024-01-11T08:15:02;61.34;39.79;72.14;;
67900;Laerm;54700;51.796;10.956;2024-01-11T08:17:30;64.24;52.13;70.89;;
67900;Laerm;54700;51.796;10.956;2024-01-11T08:20:00;62.27;41.30;75.70;;
67900;Laerm;54700;51.796;10.956;2024-01-11T08:22:28;64.65;40.75;72.56;;
67900;Laerm;54700;51.796;10.956;2024-01-11T08:24:59;62.86;45.22;74.31;;
67900;Laerm;54700;51.796;10.956;2024-01-11T08:27:36;62.75;41.60;71.40;;
67900;Laerm;54700;51.796;10.956;2024-01-11T08:30:08;65.91;48.30;76.75;;
67900;Laerm;54700;51.796;10.956;2024-01-11T08:32:35;62.47;42.47;73.34;;
67900;Laerm;54700;51.796;10.956;2024-01-11T08:35:07;64.11;40.64;74.03;;
67900;Laerm;54700;51.796;10.956;2024-01-11T08:37:36;63.65;44.07;74.05;;
67900;Laerm;54700;51.796;10.956;2024-01-11T08:40:06;63.64;43.33;77.16;;
67900;Laerm;54700;51.796;10.956;2024-01-11T08:42:40;63.74;44.24;73.57;;
67900;Laerm;54700;51.796;10.956;2024-01-11T08:45:09;64.95;44.38;72.63;;
67900;Laerm;54700;51.796;10.956;2024-01-11T08:48:14;63.27;46.97;73.42;;
67900;Laerm;54700;51.796;10.956;2024-01-11T08:54:04;63.76;40.58;71.81;;
67900;Laerm;54700;51.796;10.956;2024-01-11T08:56:35;65.44;51.12;84.73;;
67900;Laerm;54700;51.796;10.956;2024-01-11T08:59:02;63.88;48.92;72.05;;
67900;Laerm;54700;51.796;10.956;2024-01-11T09:01:31;63.57;42.27;71.65;;
67900;Laerm;54700;51.796;10.956;2024-01-11T09:04:01;61.63;39.19;72.79;;
67900;Laerm;54700;51.796;10.956;2024-01-11T09:06:29;64.26;46.20;72.68;;
67900;Laerm;54700;51.796;10.956;2024-01-11T09:08:57;63.40;38.59;72.08;;
67900;Laerm;54700;51.796;10.956;2024-01-11T09:11:25;64.51;38.01;72.43;;
67900;Laerm;54700;51.796;10.956;2024-01-11T09:13:52;65.03;47.64;74.48;;
67900;Laerm;54700;51.796;10.956;2024-01-11T09:16:20;63.21;42.12;70.92;;
67900;Laerm;54700;51.796;10.956;2024-01-11T09:18:50;64.13;46.60;70.89;;
67900;Laerm;54700;51.796;10.956;2024-01-11T09:21:17;63.53;39.33;72.41;;
67900;Laerm;54700;51.796;10.956;2024-01-11T09:23:47;63.32;42.70;71.33;;
67900;Laerm;54700;51.796;10.956;2024-01-11T09:26:16;63.52;46.12;74.55;;
67900;Laerm;54700;51.796;10.956;2024-01-11T09:28:48;64.73;45.39;73.13;;
67900;Laerm;54700;51.796;10.956;2024-01-11T09:31:15;64.86;42.69;76.35;;
67900;Laerm;54700;51.796;10.956;2024-01-11T09:33:46;64.32;43.01;74.98;;
67900;Laerm;54700;51.796;10.956;2024-01-11T09:36:16;64.22;41.52;72.12;;
67900;Laerm;54700;51.796;10.956;2024-01-11T09:38:45;64.43;44.77;75.10;;
67900;Laerm;54700;51.796;10.956;2024-01-11T09:41:13;63.64;40.02;72.18;;
67900;Laerm;54700;51.796;10.956;2024-01-11T09:43:41;65.11;39.95;78.16;;
67900;Laerm;54700;51.796;10.956;2024-01-11T09:46:11;62.38;42.09;72.01;;
67900;Laerm;54700;51.796;10.956;2024-01-11T09:48:53;66.19;47.95;78.97;;
67900;Laerm;54700;51.796;10.956;2024-01-11T09:51:23;64.85;49.15;72.21;;
67900;Laerm;54700;51.796;10.956;2024-01-11T09:53:54;64.01;41.06;72.99;;
67900;Laerm;54700;51.796;10.956;2024-01-11T09:56:21;62.40;39.06;71.32;;
67900;Laerm;54700;51.796;10.956;2024-01-11T09:58:50;64.36;48.73;74.24;;
67900;Laerm;54700;51.796;10.956;2024-01-11T10:01:19;64.37;42.47;77.06;;
67900;Laerm;54700;51.796;10.956;2024-01-11T10:03:52;65.09;39.02;76.16;;
67900;Laerm;54700;51.796;10.956;2024-01-11T10:06:23;62.06;46.27;70.58;;
67900;Laerm;54700;51.796;10.956;2024-01-11T10:08:51;63.39;38.15;71.52;;
67900;Laerm;54700;51.796;10.956;2024-01-11T10:11:18;63.13;42.95;72.11;;
67900;Laerm;54700;51.796;10.956;2024-01-11T10:13:46;63.18;39.09;70.62;;
67900;Laerm;54700;51.796;10.956;2024-01-11T10:16:13;64.57;49.89;73.21;;
67900;Laerm;54700;51.796;10.956;2024-01-11T10:18:42;63.45;40.48;71.35;;
67900;Laerm;54700;51.796;10.956;2024-01-11T10:21:09;63.56;49.06;71.43;;
67900;Laerm;54700;51.796;10.956;2024-01-11T10:23:37;64.62;52.19;71.17;;
67900;Laerm;54700;51.796;10.956;2024-01-11T10:26:05;64.68;43.49;71.70;;
67900;Laerm;54700;51.796;10.956;2024-01-11T10:28:33;64.40;51.91;74.58;;
67900;Laerm;54700;51.796;10.956;2024-01-11T10:31:03;64.28;40.37;71.89;;
67900;Laerm;54700;51.796;10.956;2024-01-11T10:33:33;64.24;45.05;77.89;;
67900;Laerm;54700;51.796;10.956;2024-01-11T10:36:06;63.78;43.57;74.19;;
67900;Laerm;54700;51.796;10.956;2024-01-11T10:38:39;64.32;46.73;73.05;;
67900;Laerm;54700;51.796;10.956;2024-01-11T10:41:12;64.10;40.41;73.39;;
67900;Laerm;54700;51.796;10.956;2024-01-11T10:43:44;63.96;38.30;72.39;;
67900;Laerm;54700;51.796;10.956;2024-01-11T10:46:26;62.54;38.73;70.47;;
67900;Laerm;54700;51.796;10.956;2024-01-11T10:49:04;64.26;39.88;73.52;;
67900;Laerm;54700;51.796;10.956;2024-01-11T10:51:59;63.52;49.84;70.94;;
67900;Laerm;54700;51.796;10.956;2024-01-11T10:54:34;64.28;47.50;73.27;;
67900;Laerm;54700;51.796;10.956;2024-01-11T10:57:24;63.34;38.92;76.05;;
67900;Laerm;54700;51.796;10.956;2024-01-11T10:59:53;61.97;45.48;70.43;;
67900;Laerm;54700;51.796;10.956;2024-01-11T11:02:22;64.32;49.88;73.00;;
67900;Laerm;54700;51.796;10.956;2024-01-11T11:04:51;62.48;42.61;71.50;;
67900;Laerm;54700;51.796;10.956;2024-01-11T11:07:22;64.16;43.80;74.28;;
67900;Laerm;54700;51.796;10.956;2024-01-11T11:09:52;62.56;37.35;74.35;;
67900;Laerm;54700;51.796;10.956;2024-01-11T11:12:23;63.84;44.04;71.40;;
67900;Laerm;54700;51.796;10.956;2024-01-11T11:14:51;64.59;38.88;75.21;;
67900;Laerm;54700;51.796;10.956;2024-01-11T11:17:19;62.88;43.71;74.16;;
67900;Laerm;54700;51.796;10.956;2024-01-11T11:19:46;63.13;42.10;75.24;;
67900;Laerm;54700;51.796;10.956;2024-01-11T11:22:13;63.16;37.78;71.35;;
67900;Laerm;54700;51.796;10.956;2024-01-11T11:24:43;63.11;45.95;70.83;;
67900;Laerm;54700;51.796;10.956;2024-01-11T11:27:13;64.23;43.96;76.01;;
67900;Laerm;54700;51.796;10.956;2024-01-11T11:29:40;63.32;43.92;71.54;;
67900;Laerm;54700;51.796;10.956;2024-01-11T11:32:10;62.45;44.34;71.56;;
67900;Laerm;54700;51.796;10.956;2024-01-11T11:34:40;64.84;48.64;73.49;;
67900;Laerm;54700;51.796;10.956;2024-01-11T11:37:10;61.87;42.28;71.41;;
67900;Laerm;54700;51.796;10.956;2024-01-11T11:39:37;64.44;46.52;81.85;;
67900;Laerm;54700;51.796;10.956;2024-01-11T11:42:06;68.23;50.67;87.66;;
67900;Laerm;54700;51.796;10.956;2024-01-11T11:44:35;62.50;45.49;81.76;;
67900;Laerm;54700;51.796;10.956;2024-01-11T11:47:19;63.11;42.55;74.10;;
67900;Laerm;54700;51.796;10.956;2024-01-11T11:50:04;64.88;43.54;77.45;;
67900;Laerm;54700;51.796;10.956;2024-01-11T11:52:35;61.72;43.09;74.24;;
67900;Laerm;54700;51.796;10.956;2024-01-11T11:55:04;63.23;41.84;73.73;;
67900;Laerm;54700;51.796;10.956;2024-01-11T11:57:36;64.70;51.33;75.00;;
67900;Laerm;54700;51.796;10.956;2024-01-11T12:00:04;63.37;45.47;75.11;;
67900;Laerm;54700;51.796;10.956;2024-01-11T12:02:32;63.52;46.90;72.64;;
67900;Laerm;54700;51.796;10.956;2024-01-11T12:05:01;63.82;45.64;71.14;;
67900;Laerm;54700;51.796;10.956;2024-01-11T12:07:29;62.79;41.91;72.59;;
67900;Laerm;54700;51.796;10.956;2024-01-11T12:09:56;62.10;41.43;72.24;;
67900;Laerm;54700;51.796;10.956;2024-01-11T12:12:23;65.02;50.53;71.18;;
67900;Laerm;54700;51.796;10.956;2024-01-11T12:14:54;63.05;40.52;72.33;;
67900;Laerm;54700;51.796;10.956;2024-01-11T12:17:21;62.51;44.50;71.51;;
67900;Laerm;54700;51.796;10.956;2024-01-11T12:19:48;63.80;45.32;73.63;;
67900;Laerm;54700;51.796;10.956;2024-01-11T12:22:17;58.99;38.64;68.85;;
67900;Laerm;54700;51.796;10.956;2024-01-11T12:24:46;62.52;43.14;72.40;;
67900;Laerm;54700;51.796;10.956;2024-01-11T12:27:13;62.37;40.30;76.64;;
67900;Laerm;54700;51.796;10.956;2024-01-11T12:29:39;62.94;42.49;72.85;;
67900;Laerm;54700;51.796;10.956;2024-01-11T12:32:08;63.94;46.23;72.82;;
67900;Laerm;54700;51.796;10.956;2024-01-11T12:34:41;64.52;45.48;79.23;;
67900;Laerm;54700;51.796;10.956;2024-01-11T12:37:09;63.34;46.69;71.60;;
67900;Laerm;54700;51.796;10.956;2024-01-11T12:39:37;61.77;45.85;76.84;;
67900;Laerm;54700;51.796;10.956;2024-01-11T12:42:05;62.24;47.83;71.29;;
67900;Laerm;54700;51.796;10.956;2024-01-11T12:44:33;63.41;51.58;71.13;;
67900;Laerm;54700;51.796;10.956;2024-01-11T12:47:05;64.71;48.05;79.44;;
67900;Laerm;54700;51.796;10.956;2024-01-11T12:49:34;63.36;42.43;72.68;;
67900;Laerm;54700;51.796;10.956;2024-01-11T12:52:03;64.42;49.98;72.65;;
67900;Laerm;54700;51.796;10.956;2024-01-11T12:54:32;64.15;42.62;71.20;;
67900;Laerm;54700;51.796;10.956;2024-01-11T12:57:00;63.25;45.59;70.82;;
67900;Laerm;54700;51.796;10.956;2024-01-11T12:59:28;64.74;46.82;73.68;;
67900;Laerm;54700;51.796;10.956;2024-01-11T13:01:55;65.19;50.03;75.08;;
67900;Laerm;54700;51.796;10.956;2024-01-11T13:04:22;62.09;43.53;73.49;;
67900;Laerm;54700;51.796;10.956;2024-01-11T13:06:51;65.30;46.92;76.02;;
67900;Laerm;54700;51.796;10.956;2024-01-11T13:09:19;64.62;47.02;71.74;;
67900;Laerm;54700;51.796;10.956;2024-01-11T13:11:46;62.44;46.10;73.80;;
67900;Laerm;54700;51.796;10.956;2024-01-11T13:14:12;63.78;51.02;71.09;;
67900;Laerm;54700;51.796;10.956;2024-01-11T13:16:44;64.77;47.40;76.36;;
67900;Laerm;54700;51.796;10.956;2024-01-11T13:19:14;62.99;51.15;71.82;;
67900;Laerm;54700;51.796;10.956;2024-01-11T13:21:41;64.19;47.34;71.54;;
67900;Laerm;54700;51.796;10.956;2024-01-11T13:24:09;63.97;46.08;80.98;;
67900;Laerm;54700;51.796;10.956;2024-01-11T13:26:38;63.88;45.40;70.59;;
67900;Laerm;54700;51.796;10.956;2024-01-11T13:29:06;64.43;45.36;71.42;;
67900;Laerm;54700;51.796;10.956;2024-01-11T13:31:33;62.47;43.82;72.65;;
67900;Laerm;54700;51.796;10.956;2024-01-11T13:34:00;64.61;45.25;73.57;;
67900;Laerm;54700;51.796;10.956;2024-01-11T13:36:27;64.04;45.09;72.48;;
67900;Laerm;54700;51.796;10.956;2024-01-11T13:38:54;62.46;44.53;71.23;;
67900;Laerm;54700;51.796;10.956;2024-01-11T13:41:23;63.46;49.49;70.35;;
67900;Laerm;54700;51.796;10.956;2024-01-11T13:43:50;63.87;52.29;70.16;;
67900;Laerm;54700;51.796;10.956;2024-01-11T13:46:17;66.48;50.61;81.33;;